Terminal Aerodrome Forecast
Issued by NWS

Current Version | Previous Version | Text Only | Print | Product List | Glossary Off
Versions: 1 2 3 4 5 6 7 8 9 10 11 12 13 14 15 16 17 18

000
FTUS41 KPBZ 272300
TAFMGW
TAF
KMGW 272335Z 2800/2824 25006KT P6SM SCT030 BKN040
      TEMPO 2800/2802 2SM -TSRA BKN030CB
     FM280200 29005KT P6SM SCT025 BKN035
     FM280400 33005KT P6SM SCT030=

USA.gov is the U.S. government's official web portal to all federal, state and local government web resources and services.